Raciborz, Poland

9:38 AM CEST on July 29, 2015 (GMT +0200)
Brama Morawska | | Change Station
CLOSE
Current Station
Personal Weather Station
Location: Nędza, śLąSKIE
Elevation: 627 ft
Nearby Weather Stations

Elev 627 ft 50.16 °N, 18.31 °E | Updated 10 seconds ago

Clear
Clear
64.2 °F
Feels Like 64.2 °F
N
1.8
Wind Variable Wind from SSW
Gusts 2.5 mph

Today
High -- | Low -- °F
--% Chance of Precip.
Yesterday
High -- | Low -- °F
Precip. -- in
5:11 AM 8:34 PM
Waxing Gibbous, 94% visible
Pressure 29.86 in
Visibility -9999.0 miles
Clouds
Dew Point 53 °F
Humidity 66%
Rainfall 0.02 in
Snow Depth Not available.
UV 2.0 out of 12
Pollen Not available.
Air Quality Not available.
Flu Activity Not available.
METAR LKMT 290730Z 21012KT CAVOK 17/11 Q1011 NOSIG

More Conditions Fewer Conditions

Pressure 29.86 in
Visibility -9999.0 miles
Clouds
Dew Point 53 °F
Humidity 66%
Rainfall 0.02 in
Snow Depth Not available.
UV 2.0 out of 12
Pollen Not available.
Air Quality Not available.
Flu Activity Not available.
METAR LKMT 290730Z 21012KT CAVOK 17/11 Q1011 NOSIG

More Conditions Fewer Conditions

10-Day Weather Forecast

×

Almanac

Astronomy

Jul. 29, 2015 Rise Set
Actual Time
Civil Twilight
Nautical Twilight
Astronomical Twilight
Moon
Length of Visible Light
Length of Day
Tomorrow will be .
, % of the Moon is Illuminated

Today's Extremes

Country Highs Country Lows

Community

WunderPhotos

Upload Photos

1,842,065 photos uploaded!

WunderBlogs® & News

Nearby

Air Quality

  Air Quality AQ Index Pollutant
Not available.

Snow Depth

Station Depth Elevation

Earthquake Activity

City Distance Mag. Time & Date
Minimum magnitude displayed is 2.5.

Coastal Water Temperatures

Place Temperature

Stations

Nearby Weather Stations

Station Location Temp. Windchill Dew Point Humidity Wind Precip. Elev Updated Type